Time;durP1;ratioP1;P1;durP2;ratioP2;P2;SDS_P1;SDS_P2;PMS_P1;PMS_P2;Temp;Humidity;BMP_temperature;BMP_pressure;BME280_temperature;BME280_humidity;BME280_pressure;Samples;Min_cycle;Max_cycle;Signal;HPM_P1;HPM_P2
2023/07/18 00:00:36;;;;;;;0.10;0.10;;;17.20;58.70;;;;;;5073254;28;20290;-48
2023/07/18 00:03:08;;;;;;;0.10;0.10;;;17.30;58.80;;;;;;5072699;28;20199;-48
2023/07/18 00:05:39;;;;;;;0.10;0.10;;;17.30;58.80;;;;;;5061542;28;20221;-48
2023/07/18 00:08:12;;;;;;;0.10;0.10;;;17.30;58.70;;;;;;5060853;28;20666;-48
2023/07/18 00:10:43;;;;;;;0.03;0.03;;;17.30;58.70;;;;;;5044186;28;20200;-48
2023/07/18 00:13:13;;;;;;;0.08;0.08;;;17.30;58.70;;;;;;5038058;28;20550;-47
2023/07/18 00:15:44;;;;;;;0.10;0.10;;;17.40;58.70;;;;;;5035808;28;20285;-51
2023/07/18 00:18:15;;;;;;;0.10;0.10;;;17.40;58.60;;;;;;5050593;28;20652;-52
2023/07/18 00:20:46;;;;;;;0.10;0.10;;;17.40;58.50;;;;;;5052454;28;20202;-54
2023/07/18 00:23:18;;;;;;;0.10;0.10;;;17.50;58.50;;;;;;5051745;28;20225;-50
2023/07/18 00:25:49;;;;;;;0.03;0.03;;;17.50;58.40;;;;;;5052029;28;20224;-48
2023/07/18 00:28:20;;;;;;;0.10;0.10;;;17.50;58.30;;;;;;5038235;28;20193;-49
2023/07/18 00:30:50;;;;;;;0.10;0.10;;;17.50;58.50;;;;;;5052811;28;20192;-50
2023/07/18 00:33:21;;;;;;;0.03;0.03;;;17.60;58.40;;;;;;5053726;28;20227;-49
2023/07/18 00:35:52;;;;;;;0.10;0.10;;;17.60;58.40;;;;;;5062046;28;20261;-49
2023/07/18 00:38:24;;;;;;;0.10;0.10;;;17.70;58.50;;;;;;5064515;28;20252;-48
2023/07/18 00:40:55;;;;;;;0.10;0.10;;;17.70;58.50;;;;;;5051720;28;20199;-50
2023/07/18 00:43:25;;;;;;;0.00;0.00;;;17.70;58.40;;;;;;5051963;28;20184;-53
2023/07/18 00:45:56;;;;;;;0.00;0.00;;;17.70;58.40;;;;;;5051565;28;20695;-51
2023/07/18 00:48:31;;;;;;;0.20;0.20;;;17.80;58.40;;;;;;5052118;28;20192;-52
2023/07/18 00:51:04;;;;;;;0.10;0.10;;;17.80;58.30;;;;;;5051890;28;20542;-50
2023/07/18 00:53:40;;;;;;;0.10;0.10;;;17.80;58.10;;;;;;5054243;28;20670;-48
2023/07/18 00:56:10;;;;;;;0.10;0.10;;;17.80;58.10;;;;;;5051388;28;20223;-50
2023/07/18 00:58:41;;;;;;;0.10;0.10;;;17.80;58.10;;;;;;5053209;28;20195;-52
2023/07/18 01:01:12;;;;;;;0.10;0.10;;;17.80;58.00;;;;;;5051806;28;20348;-49
2023/07/18 01:03:43;;;;;;;0.10;0.10;;;17.80;57.90;;;;;;5051597;28;20651;-49
2023/07/18 01:06:14;;;;;;;0.05;0.05;;;17.90;57.90;;;;;;5054877;28;20258;-54
2023/07/18 01:08:46;;;;;;;0.10;0.10;;;17.90;57.90;;;;;;5051502;28;20678;-48
2023/07/18 01:11:18;;;;;;;0.10;0.10;;;17.90;57.80;;;;;;5051475;28;20615;-52
2023/07/18 01:13:48;;;;;;;0.10;0.10;;;17.90;57.80;;;;;;5051644;28;20191;-50
2023/07/18 01:16:19;;;;;;;0.00;0.00;;;18.00;57.90;;;;;;5052043;28;20227;-52
2023/07/18 01:18:50;;;;;;;0.10;0.10;;;18.00;57.90;;;;;;5050533;28;20192;-52
2023/07/18 01:21:24;;;;;;;0.10;0.10;;;18.00;57.80;;;;;;5054639;28;20199;-52
2023/07/18 01:23:55;;;;;;;0.00;0.00;;;18.00;57.90;;;;;;5052356;28;20702;-48
2023/07/18 01:26:26;;;;;;;0.10;0.10;;;18.10;57.90;;;;;;5051794;28;20223;-53
2023/07/18 01:28:56;;;;;;;0.10;0.10;;;18.10;57.90;;;;;;5050813;28;20199;-49
2023/07/18 01:31:28;;;;;;;0.10;0.10;;;18.10;57.90;;;;;;5051390;28;20210;-54
2023/07/18 01:33:58;;;;;;;0.10;0.10;;;18.10;57.80;;;;;;5051079;28;20631;-49
2023/07/18 01:36:31;;;;;;;0.10;0.10;;;18.10;57.80;;;;;;5065449;28;20279;-51
2023/07/18 01:39:01;;;;;;;0.10;0.10;;;18.10;57.70;;;;;;5063176;28;20487;-53
2023/07/18 01:41:32;;;;;;;0.10;0.10;;;18.20;57.60;;;;;;5050007;28;20191;-53
2023/07/18 01:44:03;;;;;;;0.10;0.10;;;18.20;57.60;;;;;;5058140;28;20195;-50
2023/07/18 01:46:35;;;;;;;0.10;0.10;;;18.20;57.50;;;;;;5050485;28;20215;-53
2023/07/18 01:49:05;;;;;;;0.10;0.10;;;18.20;57.50;;;;;;5049149;28;20589;-52
2023/07/18 01:51:38;;;;;;;0.10;0.10;;;18.20;57.50;;;;;;5049602;28;20199;-53
2023/07/18 01:54:09;;;;;;;0.10;0.10;;;18.30;57.60;;;;;;5050727;28;20223;-53
2023/07/18 01:56:40;;;;;;;0.10;0.10;;;18.30;57.50;;;;;;5050354;28;20219;-50
2023/07/18 01:59:11;;;;;;;0.10;0.10;;;18.30;57.40;;;;;;5050403;28;20223;-52
2023/07/18 02:01:42;;;;;;;0.08;0.08;;;18.30;57.40;;;;;;5050630;28;20634;-52
2023/07/18 02:04:12;;;;;;;0.00;0.00;;;18.30;57.40;;;;;;5043482;28;20195;-49
2023/07/18 02:06:45;;;;;;;0.10;0.10;;;18.40;57.50;;;;;;5067306;28;20368;-51
2023/07/18 02:09:15;;;;;;;0.00;0.00;;;18.40;57.50;;;;;;5052615;28;20196;-52
2023/07/18 02:11:46;;;;;;;0.10;0.10;;;18.40;57.40;;;;;;5051102;28;20209;-48
2023/07/18 02:14:19;;;;;;;0.10;0.10;;;18.50;57.40;;;;;;5050761;28;20644;-51
2023/07/18 02:16:53;;;;;;;0.10;0.10;;;18.50;57.40;;;;;;5067138;28;20780;-55
2023/07/18 02:19:24;;;;;;;0.03;0.03;;;18.50;57.40;;;;;;5056185;28;20199;-48
2023/07/18 02:21:56;;;;;;;0.10;0.10;;;18.50;57.40;;;;;;5053995;28;20206;-50
2023/07/18 02:24:27;;;;;;;0.10;0.10;;;18.50;57.30;;;;;;5050135;28;20540;-53
2023/07/18 02:26:57;;;;;;;0.10;0.10;;;18.50;57.30;;;;;;5050114;28;20249;-51
2023/07/18 02:29:28;;;;;;;0.10;0.10;;;18.60;57.30;;;;;;5054444;28;20655;-51
2023/07/18 02:31:59;;;;;;;0.10;0.10;;;18.60;57.30;;;;;;5057772;28;20203;-52
2023/07/18 02:34:29;;;;;;;0.10;0.10;;;18.60;57.30;;;;;;5058534;28;20191;-51
2023/07/18 02:37:02;;;;;;;0.10;0.10;;;18.60;57.30;;;;;;5072861;28;20226;-49
2023/07/18 02:39:33;;;;;;;0.10;0.10;;;18.60;57.30;;;;;;5064624;28;20660;-49
2023/07/18 02:42:03;;;;;;;0.10;0.10;;;18.70;57.30;;;;;;5056320;28;20295;-51
2023/07/18 02:44:34;;;;;;;0.10;0.10;;;18.70;57.30;;;;;;5053673;28;20187;-50
2023/07/18 02:47:05;;;;;;;0.10;0.10;;;18.70;57.20;;;;;;5054887;28;20277;-53
2023/07/18 02:49:36;;;;;;;0.10;0.10;;;18.70;57.20;;;;;;5057760;28;20200;-50
2023/07/18 02:52:09;;;;;;;0.10;0.10;;;18.80;57.20;;;;;;5054065;28;20229;-54
2023/07/18 02:54:40;;;;;;;0.10;0.10;;;18.80;57.20;;;;;;5053053;28;20215;-51
2023/07/18 02:57:10;;;;;;;0.10;0.10;;;18.80;57.20;;;;;;5053891;28;20234;-50
2023/07/18 02:59:41;;;;;;;0.10;0.10;;;18.80;57.20;;;;;;5053060;28;20198;-55
2023/07/18 03:02:12;;;;;;;0.10;0.10;;;18.80;57.20;;;;;;5063191;28;20626;-54
2023/07/18 03:04:43;;;;;;;0.10;0.10;;;18.80;57.10;;;;;;5053690;28;20637;-52
2023/07/18 03:07:17;;;;;;;0.10;0.10;;;18.80;57.10;;;;;;5073608;28;20242;-53
2023/07/18 03:09:48;;;;;;;0.00;0.00;;;18.90;57.20;;;;;;5068312;28;20202;-50
2023/07/18 03:12:21;;;;;;;0.10;0.10;;;18.90;57.10;;;;;;5072827;28;20213;-50
2023/07/18 03:14:51;;;;;;;0.00;0.00;;;18.90;57.10;;;;;;5063710;28;20703;-49
2023/07/18 03:17:23;;;;;;;0.10;0.10;;;18.90;57.10;;;;;;5053026;28;20227;-51
2023/07/18 03:19:53;;;;;;;0.03;0.03;;;18.90;57.10;;;;;;5064080;28;20279;-50
2023/07/18 03:22:26;;;;;;;0.00;0.00;;;19.00;57.10;;;;;;5053039;28;20207;-52
2023/07/18 03:25:06;;;;;;;0.10;0.10;;;19.00;57.10;;;;;;5053759;28;20191;-53
2023/07/18 03:27:36;;;;;;;0.00;0.00;;;19.00;57.10;;;;;;5053615;28;20203;-55
2023/07/18 03:30:10;;;;;;;0.00;0.00;;;19.00;57.10;;;;;;5055745;28;20583;-52
2023/07/18 03:32:41;;;;;;;0.10;0.10;;;19.00;57.20;;;;;;5053321;28;20597;-50
2023/07/18 03:35:14;;;;;;;0.10;0.10;;;19.00;57.20;;;;;;5057739;28;20231;-52
2023/07/18 03:37:46;;;;;;;0.10;0.10;;;19.10;57.20;;;;;;5073855;28;20227;-52
2023/07/18 03:40:17;;;;;;;0.10;0.10;;;19.10;57.20;;;;;;5071936;28;20612;-53
2023/07/18 03:42:48;;;;;;;0.10;0.10;;;19.10;57.10;;;;;;5071342;28;20226;-52
2023/07/18 03:45:19;;;;;;;0.10;0.10;;;19.10;57.20;;;;;;5053260;28;20195;-54
2023/07/18 03:47:50;;;;;;;0.10;0.10;;;19.10;57.20;;;;;;5044484;28;20652;-49
2023/07/18 03:50:21;;;;;;;0.10;0.10;;;19.10;57.20;;;;;;5059161;28;20591;-51
2023/07/18 03:52:54;;;;;;;0.08;0.08;;;19.10;57.20;;;;;;5053659;28;20651;-51
2023/07/18 03:55:24;;;;;;;0.10;0.10;;;19.20;57.20;;;;;;5053183;28;20203;-52
2023/07/18 03:57:55;;;;;;;0.10;0.10;;;19.20;57.20;;;;;;5053459;28;20595;-54
2023/07/18 04:00:26;;;;;;;0.10;0.10;;;19.20;57.10;;;;;;5053921;28;20206;-50
2023/07/18 04:02:57;;;;;;;0.10;0.10;;;19.20;57.10;;;;;;5052955;28;20191;-53
2023/07/18 04:05:28;;;;;;;0.10;0.10;;;19.20;57.10;;;;;;5052820;28;20203;-51
2023/07/18 04:08:00;;;;;;;0.10;0.10;;;19.20;57.00;;;;;;5052125;28;20639;-53
2023/07/18 04:10:31;;;;;;;0.10;0.10;;;19.30;57.00;;;;;;5065118;28;20724;-55
2023/07/18 04:13:01;;;;;;;0.00;0.00;;;19.30;57.00;;;;;;5073256;28;20271;-50
2023/07/18 04:15:32;;;;;;;0.00;0.00;;;19.30;57.00;;;;;;5072939;28;20261;-50
2023/07/18 04:18:02;;;;;;;0.15;0.15;;;19.30;57.00;;;;;;5072891;28;20700;-51
2023/07/18 04:20:33;;;;;;;0.10;0.10;;;19.30;57.00;;;;;;5062784;28;20191;-49
2023/07/18 04:23:06;;;;;;;0.00;0.00;;;19.40;56.90;;;;;;5064725;28;20294;-53
2023/07/18 04:25:36;;;;;;;0.00;0.00;;;19.40;56.90;;;;;;5072569;28;20226;-52
2023/07/18 04:28:07;;;;;;;0.10;0.10;;;19.40;56.80;;;;;;5067993;28;20214;-51
2023/07/18 04:30:38;;;;;;;0.10;0.10;;;19.40;56.70;;;;;;5065536;28;20647;-52
2023/07/18 04:33:12;;;;;;;0.00;0.00;;;19.50;56.80;;;;;;5072812;28;20190;-50
2023/07/18 04:35:44;;;;;;;0.10;0.10;;;19.50;56.70;;;;;;5072280;28;20310;-49
2023/07/18 04:38:17;;;;;;;0.10;0.10;;;19.50;56.70;;;;;;5072605;28;20249;-48
2023/07/18 04:40:48;;;;;;;0.00;0.00;;;19.50;56.70;;;;;;5072359;28;20252;-52
2023/07/18 04:43:19;;;;;;;0.00;0.00;;;19.50;56.70;;;;;;5071540;28;20203;-51
2023/07/18 04:45:50;;;;;;;0.10;0.10;;;19.50;56.70;;;;;;5052408;28;20223;-52
2023/07/18 04:48:21;;;;;;;0.03;0.03;;;19.50;56.70;;;;;;5053522;28;20222;-55
2023/07/18 04:50:59;;;;;;;0.10;0.10;;;19.50;56.70;;;;;;5055774;28;20195;-51
2023/07/18 04:53:32;;;;;;;0.10;0.10;;;19.50;56.70;;;;;;5039083;28;20199;-53
2023/07/18 04:56:04;;;;;;;0.03;0.03;;;19.50;56.70;;;;;;5052105;28;20212;-54
2023/07/18 04:58:34;;;;;;;0.10;0.10;;;19.50;56.60;;;;;;5052701;28;20207;-55
2023/07/18 05:01:05;;;;;;;0.10;0.10;;;19.50;56.50;;;;;;5052316;28;20202;-53
2023/07/18 05:03:36;;;;;;;0.13;0.13;;;19.50;56.30;;;;;;5051515;28;20574;-51
2023/07/18 05:06:06;;;;;;;0.10;0.10;;;19.50;56.20;;;;;;5063311;28;20226;-54
2023/07/18 05:08:39;;;;;;;0.00;0.00;;;19.50;56.20;;;;;;5072347;28;20202;-54
2023/07/18 05:11:09;;;;;;;0.00;0.00;;;19.50;56.30;;;;;;5071968;28;20199;-53
2023/07/18 05:13:40;;;;;;;0.00;0.00;;;19.50;56.40;;;;;;5072085;28;20206;-50
2023/07/18 05:16:10;;;;;;;0.10;0.10;;;19.50;56.30;;;;;;5059522;28;20218;-53
2023/07/18 05:18:41;;;;;;;0.10;0.10;;;19.50;56.30;;;;;;5052655;28;20202;-53
2023/07/18 05:21:12;;;;;;;0.10;0.10;;;19.50;56.30;;;;;;5052144;28;20200;-52
2023/07/18 05:23:44;;;;;;;0.10;0.10;;;19.60;56.30;;;;;;5051609;28;20203;-51
2023/07/18 05:26:15;;;;;;;0.00;0.00;;;19.50;56.30;;;;;;5051773;28;20226;-50
2023/07/18 05:28:45;;;;;;;0.00;0.00;;;19.50;56.20;;;;;;5051884;28;20191;-51
2023/07/18 05:31:16;;;;;;;0.10;0.10;;;19.50;56.10;;;;;;5048375;28;20192;-50
2023/07/18 05:33:47;;;;;;;0.10;0.10;;;19.50;56.20;;;;;;5031789;28;20196;-53
2023/07/18 05:36:17;;;;;;;0.10;0.10;;;19.50;55.70;;;;;;5057707;28;20226;-47
2023/07/18 05:38:50;;;;;;;0.03;0.03;;;19.50;55.60;;;;;;5061905;28;20678;-49
2023/07/18 05:41:20;;;;;;;0.10;0.10;;;19.50;55.60;;;;;;5029193;28;20587;-54
2023/07/18 05:43:51;;;;;;;0.03;0.03;;;19.40;55.50;;;;;;5035732;28;20200;-50
2023/07/18 05:46:22;;;;;;;0.03;0.03;;;19.50;55.60;;;;;;5033855;28;20220;-49
2023/07/18 05:48:52;;;;;;;0.10;0.10;;;19.50;55.50;;;;;;5059618;28;20196;-50
2023/07/18 05:51:23;;;;;;;0.00;0.00;;;19.40;55.30;;;;;;5051175;28;20678;-51
2023/07/18 05:53:56;;;;;;;0.10;0.10;;;19.40;55.40;;;;;;5050792;28;20191;-49
2023/07/18 05:56:27;;;;;;;0.10;0.10;;;19.40;55.40;;;;;;5050035;28;20212;-50
2023/07/18 05:58:57;;;;;;;0.08;0.08;;;19.40;55.40;;;;;;5047293;28;20453;-47
2023/07/18 06:01:28;;;;;;;0.00;0.00;;;19.40;55.40;;;;;;5050901;28;20203;-51
2023/07/18 06:03:58;;;;;;;0.10;0.10;;;19.40;55.40;;;;;;5049851;28;20187;-51
2023/07/18 06:06:29;;;;;;;0.10;0.10;;;19.40;55.40;;;;;;5065426;28;20249;-48
2023/07/18 06:09:02;;;;;;;0.10;0.10;;;19.40;55.30;;;;;;5065627;28;20188;-54
2023/07/18 06:11:32;;;;;;;0.10;0.10;;;19.40;55.40;;;;;;5050186;28;20198;-52
2023/07/18 06:14:03;;;;;;;0.05;0.05;;;19.40;55.40;;;;;;5050625;28;20202;-53
2023/07/18 06:16:33;;;;;;;0.10;0.10;;;19.40;55.40;;;;;;5049863;28;20234;-52
2023/07/18 06:19:04;;;;;;;0.10;0.10;;;19.30;55.40;;;;;;5041595;28;20652;-54
2023/07/18 06:21:35;;;;;;;0.10;0.10;;;19.30;55.40;;;;;;5051264;28;20199;-51
2023/07/18 06:24:08;;;;;;;0.10;0.10;;;19.30;55.40;;;;;;5050302;28;20192;-50
2023/07/18 06:26:39;;;;;;;0.00;0.00;;;19.30;55.40;;;;;;5049559;28;20215;-51
2023/07/18 06:29:10;;;;;;;0.00;0.00;;;19.30;55.50;;;;;;5050234;28;20195;-49
2023/07/18 06:31:41;;;;;;;0.10;0.10;;;19.30;55.40;;;;;;5051340;28;20195;-50
2023/07/18 06:34:11;;;;;;;0.00;0.00;;;19.30;55.30;;;;;;5051665;28;20282;-52
2023/07/18 06:36:42;;;;;;;0.10;0.10;;;19.30;55.30;;;;;;5066166;28;20226;-52
2023/07/18 06:39:16;;;;;;;0.05;0.05;;;19.20;55.20;;;;;;5063807;28;20199;-54
2023/07/18 06:41:48;;;;;;;0.00;0.00;;;19.20;55.20;;;;;;5049537;28;20632;-48
2023/07/18 06:44:19;;;;;;;0.00;0.00;;;19.20;55.30;;;;;;5049541;28;20192;-50
2023/07/18 06:46:51;;;;;;;0.00;0.00;;;19.20;55.30;;;;;;5051089;28;20298;-47
2023/07/18 06:49:22;;;;;;;0.05;0.05;;;19.20;55.40;;;;;;5046634;28;20615;-48
2023/07/18 06:51:52;;;;;;;0.08;0.08;;;19.20;55.40;;;;;;5050536;28;20192;-48
2023/07/18 06:54:25;;;;;;;0.00;0.00;;;19.20;55.40;;;;;;5050808;28;20199;-52
2023/07/18 06:56:55;;;;;;;0.10;0.10;;;19.20;55.50;;;;;;5048938;28;20215;-51
2023/07/18 06:59:26;;;;;;;0.00;0.00;;;19.20;55.50;;;;;;5048715;28;20188;-51
2023/07/18 07:01:57;;;;;;;0.05;0.05;;;19.20;55.50;;;;;;5050530;28;20194;-49
2023/07/18 07:04:27;;;;;;;0.00;0.00;;;19.20;55.50;;;;;;5049939;28;20230;-49
2023/07/18 07:06:59;;;;;;;0.00;0.00;;;19.20;55.50;;;;;;5068955;28;20219;-50
2023/07/18 07:09:32;;;;;;;0.10;0.10;;;19.20;55.50;;;;;;5061314;28;20643;-48
2023/07/18 07:12:02;;;;;;;0.05;0.05;;;19.10;55.50;;;;;;5050252;28;20207;-49
2023/07/18 07:14:33;;;;;;;0.00;0.00;;;19.10;55.40;;;;;;5051763;28;20184;-50
2023/07/18 07:17:04;;;;;;;0.05;0.05;;;19.10;55.40;;;;;;5053817;28;20215;-52
2023/07/18 07:19:34;;;;;;;0.00;0.00;;;19.10;55.50;;;;;;5053889;28;20196;-48
2023/07/18 07:22:05;;;;;;;0.00;0.00;;;19.10;55.50;;;;;;5053702;28;20200;-50
2023/07/18 07:24:37;;;;;;;0.00;0.00;;;19.10;55.40;;;;;;5053121;28;20257;-50
2023/07/18 07:27:09;;;;;;;0.10;0.10;;;19.00;55.40;;;;;;5052164;28;20219;-53
2023/07/18 07:29:42;;;;;;;0.10;0.10;;;19.00;55.40;;;;;;5052838;28;20196;-49
2023/07/18 07:32:13;;;;;;;0.10;0.10;;;19.00;55.40;;;;;;5052680;28;20211;-49
2023/07/18 07:34:44;;;;;;;0.10;0.10;;;19.00;55.40;;;;;;5045286;28;20531;-48
2023/07/18 07:37:14;;;;;;;0.00;0.00;;;19.00;55.50;;;;;;5072970;28;20298;-50
2023/07/18 07:39:47;;;;;;;0.10;0.10;;;19.00;55.50;;;;;;5066722;28;20195;-49
2023/07/18 07:42:17;;;;;;;0.08;0.08;;;19.00;55.50;;;;;;5052346;28;20728;-48
2023/07/18 07:44:49;;;;;;;0.10;0.10;;;19.00;55.50;;;;;;5052837;28;20199;-51
2023/07/18 07:47:19;;;;;;;0.10;0.10;;;18.90;55.50;;;;;;5052498;28;20227;-52
2023/07/18 07:49:50;;;;;;;0.00;0.00;;;18.90;55.50;;;;;;5053525;28;20200;-49
2023/07/18 07:52:21;;;;;;;0.10;0.10;;;18.90;55.50;;;;;;5052530;28;20203;-49
2023/07/18 07:54:53;;;;;;;0.10;0.10;;;18.90;55.50;;;;;;5052608;28;20187;-54
2023/07/18 07:57:24;;;;;;;0.10;0.10;;;18.90;55.50;;;;;;5052745;28;20223;-50
2023/07/18 07:59:55;;;;;;;0.10;0.10;;;18.90;55.40;;;;;;5052486;28;20187;-52
2023/07/18 08:02:25;;;;;;;0.10;0.10;;;18.80;55.40;;;;;;5036380;28;20195;-50
2023/07/18 08:04:56;;;;;;;0.10;0.10;;;18.80;55.40;;;;;;5041071;28;20663;-53
2023/07/18 08:07:27;;;;;;;0.10;0.10;;;18.80;55.40;;;;;;5069291;28;20223;-48
2023/07/18 08:09:59;;;;;;;0.10;0.10;;;18.80;55.40;;;;;;5052384;28;20203;-49
2023/07/18 08:12:30;;;;;;;0.10;0.10;;;18.80;55.40;;;;;;5053091;28;20241;-49
2023/07/18 08:15:00;;;;;;;0.10;0.10;;;18.80;55.40;;;;;;5053035;28;20682;-51
2023/07/18 08:17:31;;;;;;;0.10;0.10;;;18.80;55.50;;;;;;5052768;28;20227;-51
2023/07/18 08:20:02;;;;;;;0.10;0.10;;;18.80;55.50;;;;;;5053559;28;20453;-53
2023/07/18 08:22:33;;;;;;;0.00;0.00;;;18.70;55.40;;;;;;5047010;28;20667;-54
2023/07/18 08:25:05;;;;;;;0.10;0.10;;;18.80;55.50;;;;;;5031933;28;20207;-51
2023/07/18 08:27:36;;;;;;;0.10;0.10;;;18.70;55.40;;;;;;5033073;28;20283;-52
2023/07/18 08:30:08;;;;;;;0.10;0.10;;;18.70;55.50;;;;;;5032845;28;20200;-50
2023/07/18 08:32:40;;;;;;;0.10;0.10;;;18.70;55.50;;;;;;5032771;28;20291;-50
2023/07/18 08:35:11;;;;;;;0.05;0.05;;;18.70;55.50;;;;;;5040402;28;20643;-50
2023/07/18 08:37:42;;;;;;;0.10;0.10;;;18.70;55.40;;;;;;5072583;28;20260;-52
2023/07/18 08:40:15;;;;;;;0.10;0.10;;;18.70;55.50;;;;;;5071717;28;20190;-49
2023/07/18 08:42:46;;;;;;;0.10;0.10;;;18.60;55.40;;;;;;5072412;28;20199;-51
2023/07/18 08:45:18;;;;;;;0.15;0.15;;;18.60;55.50;;;;;;5072218;28;20195;-50
2023/07/18 08:47:51;;;;;;;0.10;0.10;;;18.60;55.50;;;;;;5072504;28;20273;-52
2023/07/18 08:50:23;;;;;;;0.00;0.00;;;18.60;55.50;;;;;;5071714;28;20290;-50
2023/07/18 08:52:53;;;;;;;0.13;0.13;;;18.60;55.60;;;;;;5072114;28;20556;-49
2023/07/18 08:55:29;;;;;;;0.10;0.10;;;18.60;55.50;;;;;;5070358;28;20195;-48
2023/07/18 08:58:01;;;;;;;0.17;0.17;;;18.60;55.60;;;;;;5072399;28;20226;-49
2023/07/18 09:00:32;;;;;;;0.08;0.08;;;18.60;55.60;;;;;;5066560;28;20336;-51
2023/07/18 09:03:03;;;;;;;0.20;0.20;;;18.50;55.50;;;;;;5052317;28;20548;-51
2023/07/18 09:05:35;;;;;;;0.10;0.10;;;18.50;55.60;;;;;;5059081;28;20698;-49
2023/07/18 09:08:06;;;;;;;0.10;0.10;;;18.50;55.60;;;;;;5071847;28;20211;-50
2023/07/18 09:10:39;;;;;;;0.10;0.10;;;18.50;55.60;;;;;;5071604;28;20201;-53
2023/07/18 09:13:10;;;;;;;0.03;0.03;;;18.50;55.60;;;;;;5071957;28;20207;-50
2023/07/18 09:15:41;;;;;;;0.10;0.10;;;18.50;55.60;;;;;;5071976;28;20217;-51
2023/07/18 09:18:12;;;;;;;0.10;0.10;;;18.50;55.50;;;;;;5037488;28;20536;-49
2023/07/18 09:20:43;;;;;;;0.10;0.10;;;18.50;55.50;;;;;;5032865;28;20192;-53
2023/07/18 09:23:15;;;;;;;0.00;0.00;;;18.50;55.60;;;;;;5055919;28;20196;-53
2023/07/18 09:25:48;;;;;;;0.10;0.10;;;18.50;55.60;;;;;;5049814;28;20255;-53
2023/07/18 09:28:18;;;;;;;0.10;0.10;;;18.40;55.60;;;;;;5051068;28;20195;-53
2023/07/18 09:30:49;;;;;;;0.08;0.08;;;18.40;55.60;;;;;;5051198;28;20655;-53
2023/07/18 09:33:27;;;;;;;0.08;0.08;;;18.40;55.60;;;;;;5050093;28;20210;-53
2023/07/18 09:36:01;;;;;;;0.00;0.00;;;18.40;55.60;;;;;;5058687;28;20214;-53
2023/07/18 09:38:33;;;;;;;0.03;0.03;;;18.40;55.60;;;;;;5030820;28;20306;-53
2023/07/18 09:41:06;;;;;;;0.10;0.10;;;18.40;55.60;;;;;;5030707;28;20287;-53
2023/07/18 09:43:39;;;;;;;0.10;0.10;;;18.40;55.60;;;;;;5031348;28;20291;-55
2023/07/18 09:46:12;;;;;;;0.10;0.10;;;18.40;55.60;;;;;;5031091;28;20220;-52
2023/07/18 09:48:43;;;;;;;0.10;0.10;;;18.40;55.70;;;;;;5051108;28;20191;-52
2023/07/18 09:51:16;;;;;;;0.08;0.08;;;18.40;55.60;;;;;;5049993;28;20191;-51
2023/07/18 09:53:48;;;;;;;0.13;0.13;;;18.30;55.60;;;;;;5049092;28;20200;-54
2023/07/18 09:56:21;;;;;;;0.10;0.10;;;18.30;55.60;;;;;;5050127;28;20211;-53
2023/07/18 09:58:52;;;;;;;0.00;0.00;;;18.30;55.60;;;;;;5051280;28;20219;-52
2023/07/18 10:01:23;;;;;;;0.10;0.10;;;18.30;55.60;;;;;;5051023;28;20206;-53
2023/07/18 10:03:55;;;;;;;0.03;0.03;;;18.30;55.60;;;;;;5050030;28;20183;-53
2023/07/18 10:06:26;;;;;;;0.10;0.10;;;18.30;55.60;;;;;;5062815;28;20222;-54
2023/07/18 10:08:57;;;;;;;0.10;0.10;;;18.30;55.60;;;;;;5050991;28;20210;-52
2023/07/18 10:11:29;;;;;;;0.15;0.15;;;18.20;55.60;;;;;;5051180;28;20605;-54
2023/07/18 10:14:16;;;;;;;0.05;0.05;;;18.20;55.60;;;;;;5051083;28;20206;-49
2023/07/18 10:16:55;;;;;;;0.00;0.00;;;18.20;55.60;;;;;;5050696;28;20207;-52
2023/07/18 10:19:26;;;;;;;0.10;0.10;;;18.20;55.60;;;;;;5051251;28;20226;-50
2023/07/18 10:21:59;;;;;;;0.00;0.00;;;18.20;55.60;;;;;;5050009;28;20188;-53
2023/07/18 10:24:31;;;;;;;0.00;0.00;;;18.20;55.60;;;;;;5051156;28;20210;-53
2023/07/18 10:27:09;;;;;;;0.10;0.10;;;18.20;55.60;;;;;;5049628;28;20215;-54
2023/07/18 10:29:43;;;;;;;0.10;0.10;;;18.20;55.70;;;;;;5050930;28;20206;-49
2023/07/18 10:32:14;;;;;;;0.00;0.00;;;18.20;55.70;;;;;;5045438;28;20194;-52
2023/07/18 10:34:55;;;;;;;0.00;0.00;;;18.20;55.70;;;;;;5050357;28;20322;-53
2023/07/18 10:37:27;;;;;;;0.10;0.10;;;18.10;55.60;;;;;;5062142;28;20243;-54
2023/07/18 10:39:58;;;;;;;0.10;0.10;;;18.10;56.20;;;;;;5050026;28;20314;-52
2023/07/18 10:42:32;;;;;;;0.00;0.00;;;18.10;55.60;;;;;;5048612;28;20207;-53
2023/07/18 10:45:05;;;;;;;0.10;0.10;;;18.10;55.60;;;;;;5050526;28;20199;-50
2023/07/18 10:47:37;;;;;;;0.10;0.10;;;18.10;55.60;;;;;;5050025;28;20440;-51
2023/07/18 10:50:09;;;;;;;0.00;0.00;;;18.10;55.60;;;;;;5052745;28;20254;-48
2023/07/18 10:52:40;;;;;;;0.10;0.10;;;18.10;55.60;;;;;;5053089;28;20195;-51
2023/07/18 10:55:12;;;;;;;0.10;0.10;;;18.00;55.60;;;;;;5054003;28;20249;-54
2023/07/18 10:57:45;;;;;;;0.10;0.10;;;18.10;55.70;;;;;;5054085;28;20187;-53
2023/07/18 11:00:16;;;;;;;0.00;0.00;;;18.00;55.60;;;;;;5053341;28;20233;-53
2023/07/18 11:02:47;;;;;;;0.10;0.10;;;18.00;55.60;;;;;;5054113;28;20695;-52
2023/07/18 11:05:18;;;;;;;0.10;0.10;;;18.00;55.60;;;;;;5058143;28;20206;-52
2023/07/18 11:07:50;;;;;;;0.10;0.10;;;18.00;55.60;;;;;;5064573;28;20184;-50
2023/07/18 11:10:21;;;;;;;0.10;0.10;;;18.00;55.70;;;;;;5053569;28;20206;-52
2023/07/18 11:12:55;;;;;;;0.00;0.00;;;18.00;55.70;;;;;;5053238;28;20257;-54
2023/07/18 11:15:26;;;;;;;0.00;0.00;;;18.00;55.70;;;;;;5053255;28;20203;-52
2023/07/18 11:17:57;;;;;;;0.05;0.05;;;18.00;55.60;;;;;;5053183;28;20351;-54
2023/07/18 11:20:28;;;;;;;0.10;0.10;;;18.00;55.60;;;;;;5053946;28;20223;-55
2023/07/18 11:23:00;;;;;;;0.10;0.10;;;17.90;55.50;;;;;;5053720;28;20195;-53
2023/07/18 11:25:31;;;;;;;0.10;0.10;;;17.90;55.60;;;;;;5053185;28;20241;-52
2023/07/18 11:28:06;;;;;;;0.00;0.00;;;17.90;55.60;;;;;;5053299;28;20191;-51
2023/07/18 11:30:37;;;;;;;0.00;0.00;;;17.90;55.50;;;;;;5053962;28;20245;-52
2023/07/18 11:33:15;;;;;;;0.20;0.20;;;17.90;55.60;;;;;;5052633;28;20222;-52
2023/07/18 11:35:48;;;;;;;0.08;0.08;;;17.90;55.60;;;;;;5061089;28;20884;-55
2023/07/18 11:38:21;;;;;;;0.10;0.10;;;17.90;55.60;;;;;;5061549;28;20191;-53
2023/07/18 11:40:52;;;;;;;0.10;0.10;;;17.90;55.60;;;;;;5053348;28;20230;-54
2023/07/18 11:43:24;;;;;;;0.10;0.10;;;17.90;55.60;;;;;;5055309;28;20294;-50
2023/07/18 11:45:59;;;;;;;0.10;0.10;;;17.90;55.60;;;;;;5052853;28;20230;-55
2023/07/18 11:48:31;;;;;;;0.00;0.00;;;17.90;55.60;;;;;;5053227;28;20664;-54
2023/07/18 11:51:05;;;;;;;0.10;0.10;;;17.90;55.60;;;;;;5040752;28;20192;-52
2023/07/18 11:53:35;;;;;;;0.00;0.00;;;17.80;55.60;;;;;;5046150;28;20187;-54
2023/07/18 11:56:06;;;;;;;0.00;0.00;;;17.80;55.50;;;;;;5052710;28;20223;-54
2023/07/18 11:58:39;;;;;;;0.03;0.03;;;17.80;55.50;;;;;;5052844;28;20200;-52
2023/07/18 12:01:09;;;;;;;0.10;0.10;;;17.80;55.50;;;;;;5052153;28;20230;-55
2023/07/18 12:03:40;;;;;;;0.10;0.10;;;17.80;55.60;;;;;;5053160;28;20200;-54
2023/07/18 12:06:11;;;;;;;0.10;0.10;;;17.80;55.60;;;;;;5065022;28;20226;-54
2023/07/18 12:08:41;;;;;;;0.10;0.10;;;17.80;55.50;;;;;;5073607;28;20654;-55
2023/07/18 12:11:12;;;;;;;0.10;0.10;;;17.80;55.60;;;;;;5046751;28;20196;-54
2023/07/18 12:13:45;;;;;;;0.10;0.10;;;17.80;55.50;;;;;;5041618;28;20215;-55
2023/07/18 12:16:16;;;;;;;0.10;0.10;;;17.80;55.60;;;;;;5042498;28;20269;-55
2023/07/18 12:18:46;;;;;;;0.10;0.10;;;17.80;55.60;;;;;;5043476;28;20698;-54
2023/07/18 12:21:17;;;;;;;0.10;0.10;;;17.80;55.60;;;;;;5042849;28;20652;-53
2023/07/18 12:23:48;;;;;;;0.10;0.10;;;17.80;55.60;;;;;;5041756;28;20246;-52
2023/07/18 12:26:18;;;;;;;0.10;0.10;;;17.80;55.60;;;;;;5042755;28;20203;-55
2023/07/18 12:28:51;;;;;;;0.10;0.10;;;17.80;55.60;;;;;;5041656;28;20188;-56
2023/07/18 12:31:22;;;;;;;0.10;0.10;;;17.80;55.60;;;;;;5041599;28;20192;-55
2023/07/18 12:33:53;;;;;;;0.20;0.20;;;17.80;55.60;;;;;;5032518;28;20203;-55
2023/07/18 12:36:23;;;;;;;0.08;0.08;;;17.80;55.60;;;;;;5040754;28;20227;-56
2023/07/18 12:38:54;;;;;;;0.10;0.10;;;17.70;55.50;;;;;;5041576;28;20609;-54
2023/07/18 12:41:24;;;;;;;0.10;0.10;;;17.70;55.50;;;;;;5043307;28;20188;-56
2023/07/18 12:43:57;;;;;;;0.00;0.00;;;17.70;55.50;;;;;;5042653;28;20189;-56
2023/07/18 12:46:28;;;;;;;0.10;0.10;;;17.70;55.50;;;;;;5041140;28;20215;-55
2023/07/18 12:48:59;;;;;;;0.10;0.10;;;17.70;55.50;;;;;;5041465;28;20735;-54
2023/07/18 12:51:30;;;;;;;0.10;0.10;;;17.70;55.50;;;;;;5045945;28;20644;-56
2023/07/18 12:54:00;;;;;;;0.10;0.10;;;17.70;55.50;;;;;;5043594;28;20723;-56
2023/07/18 12:56:33;;;;;;;0.10;0.10;;;17.70;55.50;;;;;;5041364;28;20219;-55
2023/07/18 12:59:07;;;;;;;0.10;0.10;;;17.60;55.50;;;;;;5041093;28;20342;-56
2023/07/18 13:01:38;;;;;;;0.10;0.10;;;17.60;55.50;;;;;;5041585;28;20748;-56
2023/07/18 13:04:08;;;;;;;0.10;0.10;;;17.70;55.50;;;;;;5041271;28;20688;-55
2023/07/18 13:06:39;;;;;;;0.10;0.10;;;17.60;55.50;;;;;;5049739;28;20223;-55
2023/07/18 13:09:10;;;;;;;0.00;0.00;;;17.60;55.50;;;;;;5052305;28;20553;-55